createdAt,value
2017-11-21T00:00:02.675Z,4.87
2017-11-21T00:00:06.585Z,4.87
2017-11-21T00:00:10.827Z,4.88
2017-11-21T00:00:15.061Z,4.88
2017-11-21T00:00:19.195Z,4.89
2017-11-21T00:00:23.539Z,4.88
2017-11-21T00:00:27.926Z,4.89
2017-11-21T00:00:32.020Z,4.88
2017-11-21T00:00:36.030Z,4.89
2017-11-21T00:00:40.383Z,4.89
2017-11-21T00:00:44.623Z,4.89
2017-11-21T00:00:48.654Z,4.9
2017-11-21T00:00:52.772Z,4.89
2017-11-21T00:00:57.023Z,4.89
2017-11-21T00:01:01.369Z,4.89
2017-11-21T00:01:05.490Z,4.9
2017-11-21T00:01:09.728Z,4.9
2017-11-21T00:01:13.976Z,4.89
2017-11-21T00:01:18.096Z,4.9
2017-11-21T00:01:22.327Z,4.91
2017-11-21T00:01:26.686Z,4.91
2017-11-21T00:01:30.813Z,4.9
2017-11-21T00:01:35.163Z,4.91
2017-11-21T00:01:39.407Z,4.91
2017-11-21T00:01:43.760Z,4.91
2017-11-21T00:01:47.990Z,4.91
2017-11-21T00:01:52.218Z,4.91
2017-11-21T00:01:56.354Z,4.91
2017-11-21T00:02:00.483Z,4.91
2017-11-21T00:02:05.002Z,4.92
2017-11-21T00:02:09.254Z,4.91
2017-11-21T00:02:13.602Z,4.91
2017-11-21T00:02:17.948Z,4.92
2017-11-21T00:02:22.301Z,4.92
2017-11-21T00:02:26.544Z,4.92
2017-11-21T00:02:30.674Z,4.92
2017-11-21T00:02:34.807Z,4.92
2017-11-21T00:02:39.151Z,4.92
2017-11-21T00:02:43.284Z,4.92
2017-11-21T00:02:47.411Z,4.92
2017-11-21T00:02:51.753Z,4.93
2017-11-21T00:02:56.105Z,4.92
2017-11-21T00:03:00.340Z,4.93
2017-11-21T00:03:05.079Z,4.94
2017-11-21T00:03:09.421Z,4.93
2017-11-21T00:03:13.654Z,4.94
2017-11-21T00:03:18.004Z,4.93
2017-11-21T00:03:22.357Z,4.94
2017-11-21T00:03:26.712Z,4.94
2017-11-21T00:03:31.084Z,4.94
2017-11-21T00:03:35.589Z,4.95
2017-11-21T00:03:39.716Z,4.95
2017-11-21T00:03:43.962Z,4.95
2017-11-21T00:03:48.096Z,4.95
2017-11-21T00:03:52.461Z,4.96
2017-11-21T00:03:56.584Z,4.95
2017-11-21T00:04:00.826Z,4.95
2017-11-21T00:04:05.370Z,4.95
2017-11-21T00:04:09.274Z,4.97
2017-11-21T00:04:13.615Z,4.96
2017-11-21T00:04:17.981Z,4.96
2017-11-21T00:04:22.330Z,4.96
2017-11-21T00:04:26.461Z,4.96
2017-11-21T00:04:30.599Z,4.97
2017-11-21T00:04:34.721Z,4.96
2017-11-21T00:04:38.850Z,4.97
2017-11-21T00:04:43.103Z,4.98
2017-11-21T00:04:46.902Z,4.97
2017-11-21T00:04:51.243Z,4.97
2017-11-21T00:04:55.591Z,4.98
2017-11-21T00:04:59.626Z,4.98
2017-11-21T00:05:03.955Z,4.97
2017-11-21T00:05:08.203Z,4.98
2017-11-21T00:05:12.364Z,4.98
2017-11-21T00:05:16.607Z,4.99
2017-11-21T00:05:20.843Z,4.99
2017-11-21T00:05:25.082Z,4.99
2017-11-21T00:05:29.435Z,4.98
2017-11-21T00:05:33.670Z,4.99
2017-11-21T00:05:37.789Z,4.99
2017-11-21T00:05:42.042Z,4.99
2017-11-21T00:05:46.384Z,4.99
2017-11-21T00:05:50.618Z,5
2017-11-21T00:05:54.854Z,4.99
2017-11-21T00:05:59.202Z,4.99
2017-11-21T00:06:03.603Z,5
2017-11-21T00:06:07.731Z,4.99
2017-11-21T00:06:11.863Z,5
2017-11-21T00:06:16.211Z,5.01
2017-11-21T00:06:20.350Z,5.01
2017-11-21T00:06:24.713Z,5.01
2017-11-21T00:06:28.969Z,5.01
2017-11-21T00:06:33.323Z,5
2017-11-21T00:06:37.560Z,5.01
2017-11-21T00:06:41.812Z,5.01
2017-11-21T00:06:45.936Z,5
2017-11-21T00:06:50.281Z,5.01
2017-11-21T00:06:54.415Z,5.01
2017-11-21T00:06:58.770Z,5.01
2017-11-21T00:07:03.204Z,5.01
2017-11-21T00:07:07.213Z,5.01
2017-11-21T00:07:11.461Z,5
2017-11-21T00:07:15.597Z,5.01
2017-11-21T00:07:19.939Z,5
2017-11-21T00:07:24.198Z,5.01
2017-11-21T00:07:28.444Z,5.01
2017-11-21T00:07:32.566Z,5
2017-11-21T00:07:36.703Z,5.01
2017-11-21T00:07:41.056Z,5.02
2017-11-21T00:07:45.298Z,5.01
2017-11-21T00:07:49.540Z,5.01
2017-11-21T00:07:53.798Z,5.02
2017-11-21T00:07:57.922Z,5.02
2017-11-21T00:08:02.277Z,5.01
2017-11-21T00:08:06.515Z,5.01
2017-11-21T00:08:10.866Z,5.02
2017-11-21T00:08:15.204Z,5.02
2017-11-21T00:08:19.327Z,5.02
2017-11-21T00:08:23.577Z,5.02
2017-11-21T00:08:27.930Z,5.03
2017-11-21T00:08:32.280Z,5.02
2017-11-21T00:08:36.414Z,5.02
2017-11-21T00:08:40.760Z,5.02
2017-11-21T00:08:45.105Z,5.03
2017-11-21T00:08:49.236Z,5.03
2017-11-21T00:08:53.604Z,5.03
2017-11-21T00:08:57.747Z,5.03
2017-11-21T00:09:02.394Z,5.02
2017-11-21T00:09:06.641Z,5.03
2017-11-21T00:09:10.982Z,5.03
2017-11-21T00:09:15.219Z,5.03
2017-11-21T00:09:19.460Z,5.03
2017-11-21T00:09:23.697Z,5.03
2017-11-21T00:09:27.924Z,5.03
2017-11-21T00:09:32.170Z,5.03
2017-11-21T00:09:36.224Z,5.04
2017-11-21T00:09:40.460Z,5.03
2017-11-21T00:09:44.584Z,5.03
2017-11-21T00:09:48.829Z,5.04
2017-11-21T00:09:52.967Z,5.03
2017-11-21T00:09:57.200Z,5.04
2017-11-21T00:10:01.346Z,5.05
2017-11-21T00:10:05.464Z,5.04
2017-11-21T00:10:09.706Z,5.04
2017-11-21T00:10:14.009Z,5.04
2017-11-21T00:10:18.252Z,5.04
2017-11-21T00:10:22.597Z,5.04
2017-11-21T00:10:26.964Z,5.04
2017-11-21T00:10:31.110Z,5.05
2017-11-21T00:10:35.343Z,5.05
2017-11-21T00:10:39.708Z,5.05
2017-11-21T00:10:43.851Z,5.05
2017-11-21T00:10:48.088Z,5.04
2017-11-21T00:10:52.320Z,5.04
2017-11-21T00:10:56.699Z,5.05
2017-11-21T00:11:01.053Z,5.05
2017-11-21T00:11:05.205Z,5.05
2017-11-21T00:11:09.450Z,5.05
2017-11-21T00:11:13.607Z,5.06
2017-11-21T00:11:17.733Z,5.05
2017-11-21T00:11:21.967Z,5.06
2017-11-21T00:11:26.325Z,5.06
2017-11-21T00:11:30.446Z,5.06
2017-11-21T00:11:34.783Z,5.06
2017-11-21T00:11:39.030Z,5.06
2017-11-21T00:11:43.166Z,5.05
2017-11-21T00:11:47.294Z,5.06
2017-11-21T00:11:51.644Z,5.06
2017-11-21T00:11:56.020Z,5.07
2017-11-21T00:12:00.376Z,5.07
2017-11-21T00:12:04.617Z,5.06
2017-11-21T00:12:08.861Z,5.07
2017-11-21T00:12:13.210Z,5.07
2017-11-21T00:12:17.442Z,5.07
2017-11-21T00:12:21.345Z,5.07
2017-11-21T00:12:25.704Z,5.07
2017-11-21T00:12:29.835Z,5.07
2017-11-21T00:12:34.081Z,5.08
2017-11-21T00:12:38.321Z,5.08
2017-11-21T00:12:42.683Z,5.08
2017-11-21T00:12:46.921Z,5.08
2017-11-21T00:12:51.166Z,5.07
2017-11-21T00:12:55.509Z,5.09
2017-11-21T00:12:59.857Z,5.09
2017-11-21T00:13:04.213Z,5.09
2017-11-21T00:13:08.450Z,5.08
2017-11-21T00:13:12.680Z,5.09
2017-11-21T00:13:17.028Z,5.09
2017-11-21T00:13:21.202Z,5.09
2017-11-21T00:13:25.545Z,5.09
2017-11-21T00:13:29.778Z,5.09
2017-11-21T00:13:33.796Z,5.09
2017-11-21T00:13:38.139Z,5.09
2017-11-21T00:13:42.262Z,5.09
2017-11-21T00:13:46.498Z,5.09
2017-11-21T00:13:50.871Z,5.1
2017-11-21T00:13:55.129Z,5.1
2017-11-21T00:13:59.366Z,5.1
2017-11-21T00:14:04.027Z,5.09
2017-11-21T00:14:08.401Z,5.11
2017-11-21T00:14:12.741Z,5.11
2017-11-21T00:14:16.869Z,5.11
2017-11-21T00:14:21.004Z,5.11
2017-11-21T00:14:25.256Z,5.11
2017-11-21T00:14:29.489Z,5.11
2017-11-21T00:14:33.740Z,5.12
2017-11-21T00:14:37.980Z,5.12
2017-11-21T00:14:42.214Z,5.12
2017-11-21T00:14:46.459Z,5.12
2017-11-21T00:14:50.697Z,5.13
2017-11-21T00:14:54.712Z,5.13
2017-11-21T00:14:59.071Z,5.14
2017-11-21T00:15:03.211Z,5.13
2017-11-21T00:15:07.561Z,5.13
2017-11-21T00:15:11.795Z,5.13
2017-11-21T00:15:16.168Z,5.14
2017-11-21T00:15:20.421Z,5.14
2017-11-21T00:15:24.669Z,5.14
2017-11-21T00:15:29.019Z,5.15
2017-11-21T00:15:33.163Z,5.15
2017-11-21T00:15:37.393Z,5.15
2017-11-21T00:15:41.734Z,5.15
2017-11-21T00:15:45.873Z,5.15
2017-11-21T00:15:50.001Z,5.15
2017-11-21T00:15:54.129Z,5.15
2017-11-21T00:15:58.255Z,5.15
2017-11-21T00:16:02.439Z,5.15
2017-11-21T00:16:06.236Z,5.16
2017-11-21T00:16:10.255Z,5.16
2017-11-21T00:16:14.492Z,5.16
2017-11-21T00:16:18.750Z,5.17
2017-11-21T00:16:23.000Z,5.16
2017-11-21T00:16:27.237Z,5.17
2017-11-21T00:16:31.257Z,5.16
2017-11-21T00:16:35.613Z,5.17
2017-11-21T00:16:39.959Z,5.17
2017-11-21T00:16:44.322Z,5.18
2017-11-21T00:16:48.496Z,5.18
2017-11-21T00:16:52.617Z,5.17
2017-11-21T00:16:56.754Z,5.18
2017-11-21T00:17:00.878Z,5.18
2017-11-21T00:17:04.903Z,5.19
2017-11-21T00:17:08.942Z,5.18
2017-11-21T00:17:13.071Z,5.18
2017-11-21T00:17:17.299Z,5.18
2017-11-21T00:17:21.542Z,5.18
2017-11-21T00:17:25.907Z,5.18
2017-11-21T00:17:30.155Z,5.19
2017-11-21T00:17:34.278Z,5.19
2017-11-21T00:17:38.530Z,5.18
2017-11-21T00:17:42.769Z,5.19
2017-11-21T00:17:47.116Z,5.19
2017-11-21T00:17:51.256Z,5.19
2017-11-21T00:17:55.646Z,5.19
2017-11-21T00:18:00.000Z,5.2
2017-11-21T00:18:04.356Z,5.2
2017-11-21T00:18:08.496Z,5.19
2017-11-21T00:18:12.732Z,5.2
2017-11-21T00:18:17.093Z,5.19
2017-11-21T00:18:21.237Z,5.21
2017-11-21T00:18:25.634Z,5.2
2017-11-21T00:18:29.758Z,5.21
2017-11-21T00:18:33.895Z,5.2
2017-11-21T00:18:38.244Z,5.21
2017-11-21T00:18:42.483Z,5.21
2017-11-21T00:18:46.501Z,5.2
2017-11-21T00:18:50.735Z,5.21
2017-11-21T00:18:54.760Z,5.21
2017-11-21T00:18:58.901Z,5.21
2017-11-21T00:19:03.653Z,5.22
2017-11-21T00:19:07.992Z,5.21
2017-11-21T00:19:12.368Z,5.21
2017-11-21T00:19:16.717Z,5.22
2017-11-21T00:19:20.731Z,5.22
2017-11-21T00:19:24.865Z,5.22
2017-11-21T00:19:29.210Z,5.22
2017-11-21T00:19:33.435Z,5.22
2017-11-21T00:19:37.682Z,5.22
2017-11-21T00:19:42.027Z,5.22
2017-11-21T00:19:46.269Z,5.22
2017-11-21T00:19:50.399Z,5.23
2017-11-21T00:19:54.529Z,5.23
2017-11-21T00:19:58.775Z,5.23
2017-11-21T00:20:03.170Z,5.23
2017-11-21T00:20:07.548Z,5.23
2017-11-21T00:20:11.786Z,5.23
2017-11-21T00:20:15.928Z,5.23
2017-11-21T00:20:20.336Z,5.24
2017-11-21T00:20:24.565Z,5.23
2017-11-21T00:20:28.908Z,5.24
2017-11-21T00:20:33.149Z,5.23
2017-11-21T00:20:37.279Z,5.24
2017-11-21T00:20:41.625Z,5.24
2017-11-21T00:20:45.977Z,5.24
2017-11-21T00:20:50.222Z,5.24
2017-11-21T00:20:54.243Z,5.25
2017-11-21T00:20:58.470Z,5.24
2017-11-21T00:21:02.696Z,5.25
2017-11-21T00:21:06.951Z,5.26
2017-11-21T00:21:11.195Z,5.24
2017-11-21T00:21:15.429Z,5.25
2017-11-21T00:21:19.673Z,5.26
2017-11-21T00:21:23.798Z,5.25
2017-11-21T00:21:27.930Z,5.25
2017-11-21T00:21:32.180Z,5.26
2017-11-21T00:21:36.433Z,5.27
2017-11-21T00:21:40.690Z,5.26
2017-11-21T00:21:44.931Z,5.27
2017-11-21T00:21:49.174Z,5.27
2017-11-21T00:21:53.512Z,5.27
2017-11-21T00:21:57.759Z,5.26
2017-11-21T00:22:02.189Z,5.26
2017-11-21T00:22:06.311Z,5.27
2017-11-21T00:22:10.561Z,5.27
2017-11-21T00:22:14.924Z,5.27
2017-11-21T00:22:19.091Z,5.27
2017-11-21T00:22:23.329Z,5.27
2017-11-21T00:22:27.577Z,5.28
2017-11-21T00:22:31.956Z,5.28
2017-11-21T00:22:35.967Z,5.28
2017-11-21T00:22:40.310Z,5.29
2017-11-21T00:22:44.331Z,5.28
2017-11-21T00:22:48.566Z,5.28
2017-11-21T00:22:52.916Z,5.29
2017-11-21T00:22:57.047Z,5.28
2017-11-21T00:23:01.436Z,5.29
2017-11-21T00:23:05.670Z,5.29
2017-11-21T00:23:10.021Z,5.3
2017-11-21T00:23:14.269Z,5.29
2017-11-21T00:23:18.393Z,5.3
2017-11-21T00:23:22.737Z,5.29
2017-11-21T00:23:26.979Z,5.3
2017-11-21T00:23:31.053Z,5.31
2017-11-21T00:23:35.397Z,5.3
2017-11-21T00:23:39.739Z,5.31
2017-11-21T00:23:43.878Z,5.31
2017-11-21T00:23:48.000Z,5.31
2017-11-21T00:23:52.349Z,5.31
2017-11-21T00:23:56.711Z,5.31
2017-11-21T00:24:01.057Z,5.31
2017-11-21T00:24:05.504Z,5.31
2017-11-21T00:24:09.746Z,5.31
2017-11-21T00:24:14.103Z,5.31
2017-11-21T00:24:18.234Z,5.31
2017-11-21T00:24:22.473Z,5.31
2017-11-21T00:24:26.731Z,5.31
2017-11-21T00:24:30.969Z,5.31
2017-11-21T00:24:35.199Z,5.32
2017-11-21T00:24:39.440Z,5.32
2017-11-21T00:24:43.686Z,5.32
2017-11-21T00:24:47.925Z,5.33
2017-11-21T00:24:52.175Z,5.32
2017-11-21T00:24:56.413Z,5.32
2017-11-21T00:25:00.663Z,5.33
2017-11-21T00:25:04.804Z,5.33
2017-11-21T00:25:08.943Z,5.33
2017-11-21T00:25:13.179Z,5.33
2017-11-21T00:25:17.424Z,5.34
2017-11-21T00:25:21.664Z,5.33
2017-11-21T00:25:25.798Z,5.34
2017-11-21T00:25:30.137Z,5.33
2017-11-21T00:25:34.379Z,5.33
2017-11-21T00:25:38.513Z,5.34
2017-11-21T00:25:42.855Z,5.35
2017-11-21T00:25:46.979Z,5.34
2017-11-21T00:25:51.233Z,5.34
2017-11-21T00:25:55.355Z,5.34
2017-11-21T00:25:59.594Z,5.34
2017-11-21T00:26:04.084Z,5.35
2017-11-21T00:26:08.317Z,5.34
2017-11-21T00:26:12.445Z,5.35
2017-11-21T00:26:16.684Z,5.35
2017-11-21T00:26:20.919Z,5.35
2017-11-21T00:26:25.161Z,5.35
2017-11-21T00:26:29.502Z,5.36
2017-11-21T00:26:33.744Z,5.35
2017-11-21T00:26:37.976Z,5.35
2017-11-21T00:26:42.120Z,5.35
2017-11-21T00:26:46.270Z,5.35
2017-11-21T00:26:50.383Z,5.35
2017-11-21T00:26:54.393Z,5.35
2017-11-21T00:26:58.778Z,5.36
2017-11-21T00:27:03.016Z,5.36
2017-11-21T00:27:07.265Z,5.36
2017-11-21T00:27:11.624Z,5.36
2017-11-21T00:27:15.974Z,5.36
2017-11-21T00:27:20.314Z,5.36
2017-11-21T00:27:24.666Z,5.37
2017-11-21T00:27:28.828Z,5.36
2017-11-21T00:27:33.179Z,5.36
2017-11-21T00:27:37.529Z,5.36
2017-11-21T00:27:41.890Z,5.36
2017-11-21T00:27:46.281Z,5.36
2017-11-21T00:27:50.625Z,5.36
2017-11-21T00:27:54.863Z,5.36
2017-11-21T00:27:59.104Z,5.36
2017-11-21T00:28:03.356Z,5.37
2017-11-21T00:28:07.481Z,5.37
2017-11-21T00:28:11.848Z,5.37
2017-11-21T00:28:16.187Z,5.36
2017-11-21T00:28:20.203Z,5.37
2017-11-21T00:28:24.443Z,5.37
2017-11-21T00:28:28.836Z,5.38
2017-11-21T00:28:33.069Z,5.37
2017-11-21T00:28:37.299Z,5.38
2017-11-21T00:28:41.551Z,5.38
2017-11-21T00:28:45.819Z,5.38
2017-11-21T00:28:49.949Z,5.37
2017-11-21T00:28:54.183Z,5.38
2017-11-21T00:28:58.428Z,5.39
2017-11-21T00:29:02.764Z,5.38
2017-11-21T00:29:06.911Z,5.37
2017-11-21T00:29:11.043Z,5.38
2017-11-21T00:29:15.275Z,5.38
2017-11-21T00:29:19.411Z,5.38
2017-11-21T00:29:23.559Z,5.39
2017-11-21T00:29:27.907Z,5.38
2017-11-21T00:29:32.160Z,5.38
2017-11-21T00:29:36.285Z,5.38
2017-11-21T00:29:40.297Z,5.38
2017-11-21T00:29:44.533Z,5.39
2017-11-21T00:29:48.770Z,5.4
2017-11-21T00:29:52.903Z,5.38
2017-11-21T00:29:57.144Z,5.39
2017-11-21T00:30:01.174Z,5.39
2017-11-21T00:30:05.533Z,5.4
2017-11-21T00:30:09.833Z,5.38
2017-11-21T00:30:14.070Z,5.4
2017-11-21T00:30:18.424Z,5.4
2017-11-21T00:30:22.659Z,5.41
2017-11-21T00:30:26.899Z,5.39
2017-11-21T00:30:31.262Z,5.41
2017-11-21T00:30:35.400Z,5.41
2017-11-21T00:30:39.639Z,5.42
2017-11-21T00:30:43.679Z,5.41
2017-11-21T00:30:47.711Z,5.42
2017-11-21T00:30:51.843Z,5.41
2017-11-21T00:30:55.978Z,5.42
2017-11-21T00:31:00.348Z,5.42
2017-11-21T00:31:04.853Z,5.41
2017-11-21T00:31:09.197Z,5.42
2017-11-21T00:31:13.549Z,5.42
2017-11-21T00:31:17.893Z,5.42
2017-11-21T00:31:22.156Z,5.42
2017-11-21T00:31:26.497Z,5.42
2017-11-21T00:31:30.632Z,5.43
2017-11-21T00:31:34.873Z,5.43
2017-11-21T00:31:39.232Z,5.43
2017-11-21T00:31:43.594Z,5.43
2017-11-21T00:31:47.734Z,5.43
2017-11-21T00:31:52.101Z,5.44
2017-11-21T00:31:56.233Z,5.43
2017-11-21T00:32:00.482Z,5.43
2017-11-21T00:32:04.764Z,5.43
2017-11-21T00:32:09.019Z,5.43
2017-11-21T00:32:13.275Z,5.45
2017-11-21T00:32:17.625Z,5.44
2017-11-21T00:32:21.980Z,5.45
2017-11-21T00:32:26.111Z,5.45
2017-11-21T00:32:30.362Z,5.45
2017-11-21T00:32:34.608Z,5.46
2017-11-21T00:32:38.637Z,5.46
2017-11-21T00:32:42.916Z,5.46
2017-11-21T00:32:47.258Z,5.46
2017-11-21T00:32:51.601Z,5.47
2017-11-21T00:32:55.972Z,5.46
2017-11-21T00:33:00.350Z,5.46
2017-11-21T00:33:04.957Z,5.47
2017-11-21T00:33:09.221Z,5.47
2017-11-21T00:33:13.368Z,5.47
2017-11-21T00:33:17.500Z,5.48
2017-11-21T00:33:21.770Z,5.48
2017-11-21T00:33:26.017Z,5.47
2017-11-21T00:33:30.146Z,5.48
2017-11-21T00:33:34.283Z,5.48
2017-11-21T00:33:38.532Z,5.48
2017-11-21T00:33:42.897Z,5.48
2017-11-21T00:33:47.249Z,5.48
2017-11-21T00:33:51.631Z,5.49
2017-11-21T00:33:55.543Z,5.49
2017-11-21T00:33:59.667Z,5.49
2017-11-21T00:34:03.799Z,5.48
2017-11-21T00:34:07.924Z,5.49
2017-11-21T00:34:12.055Z,5.49
2017-11-21T00:34:16.293Z,5.5
2017-11-21T00:34:20.652Z,5.48
2017-11-21T00:34:25.007Z,5.5
2017-11-21T00:34:29.248Z,5.49
2017-11-21T00:34:33.495Z,5.49
2017-11-21T00:34:37.723Z,5.5
2017-11-21T00:34:41.851Z,5.49
2017-11-21T00:34:46.080Z,5.51
2017-11-21T00:34:50.349Z,5.5
2017-11-21T00:34:54.719Z,5.51
2017-11-21T00:34:58.861Z,5.51
2017-11-21T00:35:03.211Z,5.51
2017-11-21T00:35:07.353Z,5.51
2017-11-21T00:35:11.604Z,5.51
2017-11-21T00:35:15.850Z,5.51
2017-11-21T00:35:20.090Z,5.51
2017-11-21T00:35:24.443Z,5.52
2017-11-21T00:35:28.790Z,5.52
2017-11-21T00:35:33.043Z,5.52
2017-11-21T00:35:37.394Z,5.52
2017-11-21T00:35:41.632Z,5.53
2017-11-21T00:35:46.005Z,5.53
2017-11-21T00:35:50.368Z,5.53
2017-11-21T00:35:54.619Z,5.53
2017-11-21T00:35:58.882Z,5.52
2017-11-21T00:36:03.128Z,5.53
2017-11-21T00:36:07.370Z,5.53
2017-11-21T00:36:11.609Z,5.53
2017-11-21T00:36:15.960Z,5.53
2017-11-21T00:36:20.196Z,5.53
2017-11-21T00:36:24.544Z,5.54
2017-11-21T00:36:28.793Z,5.54
2017-11-21T00:36:33.046Z,5.53
2017-11-21T00:36:37.285Z,5.54
2017-11-21T00:36:41.646Z,5.53
2017-11-21T00:36:45.895Z,5.54
2017-11-21T00:36:50.022Z,5.54
2017-11-21T00:36:54.381Z,5.54
2017-11-21T00:36:58.669Z,5.54
2017-11-21T00:37:02.790Z,5.54
2017-11-21T00:37:06.926Z,5.54
2017-11-21T00:37:11.294Z,5.54
2017-11-21T00:37:15.643Z,5.55
2017-11-21T00:37:19.885Z,5.54
2017-11-21T00:37:24.255Z,5.55
2017-11-21T00:37:28.620Z,5.54
2017-11-21T00:37:32.524Z,5.55
2017-11-21T00:37:36.772Z,5.55
2017-11-21T00:37:41.005Z,5.55
2017-11-21T00:37:45.141Z,5.54
2017-11-21T00:37:49.372Z,5.55
2017-11-21T00:37:53.734Z,5.55
2017-11-21T00:37:57.971Z,5.55
2017-11-21T00:38:02.216Z,5.54
2017-11-21T00:38:06.572Z,5.55
2017-11-21T00:38:10.470Z,5.55
2017-11-21T00:38:14.715Z,5.55
2017-11-21T00:38:18.846Z,5.55
2017-11-21T00:38:23.204Z,5.56
2017-11-21T00:38:27.554Z,5.56
2017-11-21T00:38:31.803Z,5.56
2017-11-21T00:38:36.052Z,5.56
2017-11-21T00:38:40.303Z,5.55
2017-11-21T00:38:44.658Z,5.56
2017-11-21T00:38:48.902Z,5.56
2017-11-21T00:38:53.047Z,5.55
2017-11-21T00:38:57.284Z,5.55
2017-11-21T00:39:01.420Z,5.56
2017-11-21T00:39:05.675Z,5.56
2017-11-21T00:39:10.026Z,5.55
2017-11-21T00:39:14.058Z,5.56
2017-11-21T00:39:18.424Z,5.56
2017-11-21T00:39:22.660Z,5.55
2017-11-21T00:39:27.021Z,5.56
2017-11-21T00:39:31.264Z,5.57
2017-11-21T00:39:35.609Z,5.55
2017-11-21T00:39:39.861Z,5.56
2017-11-21T00:39:44.121Z,5.56
2017-11-21T00:39:48.251Z,5.55
2017-11-21T00:39:52.590Z,5.56
2017-11-21T00:39:56.840Z,5.56
2017-11-21T00:40:01.199Z,5.56
2017-11-21T00:40:05.331Z,5.57
2017-11-21T00:40:09.466Z,5.57
2017-11-21T00:40:13.594Z,5.56
2017-11-21T00:40:17.843Z,5.57
2017-11-21T00:40:22.092Z,5.56
2017-11-21T00:40:26.350Z,5.56
2017-11-21T00:40:30.710Z,5.56
2017-11-21T00:40:34.832Z,5.56
2017-11-21T00:40:39.071Z,5.57
2017-11-21T00:40:43.320Z,5.56
2017-11-21T00:40:47.662Z,5.57
2017-11-21T00:40:51.900Z,5.57
2017-11-21T00:40:56.173Z,5.57
2017-11-21T00:41:00.419Z,5.57
2017-11-21T00:41:04.426Z,5.57
2017-11-21T00:41:08.783Z,5.56
2017-11-21T00:41:13.014Z,5.57
2017-11-21T00:41:17.256Z,5.58
2017-11-21T00:41:21.615Z,5.57
2017-11-21T00:41:25.970Z,5.57
2017-11-21T00:41:30.107Z,5.57
2017-11-21T00:41:34.231Z,5.57
2017-11-21T00:41:38.475Z,5.57
2017-11-21T00:41:42.706Z,5.57
2017-11-21T00:41:46.841Z,5.57
2017-11-21T00:41:51.085Z,5.58
2017-11-21T00:41:55.442Z,5.58
2017-11-21T00:41:59.674Z,5.59
2017-11-21T00:42:03.815Z,5.58
2017-11-21T00:42:08.064Z,5.58
2017-11-21T00:42:12.298Z,5.59
2017-11-21T00:42:16.543Z,5.59
2017-11-21T00:42:20.894Z,5.59
2017-11-21T00:42:25.236Z,5.58
2017-11-21T00:42:29.595Z,5.59
2017-11-21T00:42:33.836Z,5.59
2017-11-21T00:42:38.085Z,5.59
2017-11-21T00:42:42.099Z,5.59
2017-11-21T00:42:46.344Z,5.59
2017-11-21T00:42:50.691Z,5.58
2017-11-21T00:42:55.041Z,5.6
2017-11-21T00:42:59.294Z,5.59
2017-11-21T00:43:03.664Z,5.59
2017-11-21T00:43:07.902Z,5.59
2017-11-21T00:43:12.248Z,5.6
2017-11-21T00:43:16.534Z,5.59
2017-11-21T00:43:20.900Z,5.6
2017-11-21T00:43:25.131Z,5.6
2017-11-21T00:43:29.384Z,5.6
2017-11-21T00:43:33.526Z,5.6
2017-11-21T00:43:37.761Z,5.6
2017-11-21T00:43:42.007Z,5.6
2017-11-21T00:43:46.361Z,5.6
2017-11-21T00:43:50.382Z,5.6
2017-11-21T00:43:54.515Z,5.6
2017-11-21T00:43:58.766Z,5.6
2017-11-21T00:44:03.122Z,5.61
2017-11-21T00:44:07.368Z,5.6
2017-11-21T00:44:11.642Z,5.6
2017-11-21T00:44:15.892Z,5.6
2017-11-21T00:44:20.126Z,5.61
2017-11-21T00:44:24.390Z,5.61
2017-11-21T00:44:28.729Z,5.61
2017-11-21T00:44:33.099Z,5.62
2017-11-21T00:44:37.355Z,5.62
2017-11-21T00:44:41.713Z,5.62
2017-11-21T00:44:45.952Z,5.62
2017-11-21T00:44:50.317Z,5.62
2017-11-21T00:44:54.678Z,5.62
2017-11-21T00:44:58.926Z,5.63
2017-11-21T00:45:03.484Z,5.63
2017-11-21T00:45:07.836Z,5.62
2017-11-21T00:45:11.850Z,5.63
2017-11-21T00:45:16.085Z,5.63
2017-11-21T00:45:20.214Z,5.64
2017-11-21T00:45:24.568Z,5.64
2017-11-21T00:45:28.814Z,5.64
2017-11-21T00:45:32.936Z,5.64
2017-11-21T00:45:37.067Z,5.64
2017-11-21T00:45:41.081Z,5.65
2017-11-21T00:45:45.319Z,5.65
2017-11-21T00:45:49.339Z,5.65
2017-11-21T00:45:53.470Z,5.64
2017-11-21T00:45:57.717Z,5.65
2017-11-21T00:46:02.075Z,5.65
2017-11-21T00:46:05.985Z,5.65
2017-11-21T00:46:10.228Z,5.65
2017-11-21T00:46:14.595Z,5.65
2017-11-21T00:46:18.734Z,5.65
2017-11-21T00:46:23.114Z,5.65
2017-11-21T00:46:27.366Z,5.65
2017-11-21T00:46:31.499Z,5.66
2017-11-21T00:46:35.755Z,5.65
2017-11-21T00:46:40.112Z,5.66
2017-11-21T00:46:44.237Z,5.66
2017-11-21T00:46:48.477Z,5.67
2017-11-21T00:46:52.834Z,5.67
2017-11-21T00:46:57.074Z,5.66
2017-11-21T00:47:01.311Z,5.67
2017-11-21T00:47:05.553Z,5.67
2017-11-21T00:47:09.912Z,5.67
2017-11-21T00:47:14.178Z,5.67
2017-11-21T00:47:18.524Z,5.67
2017-11-21T00:47:22.661Z,5.67
2017-11-21T00:47:27.016Z,5.67
2017-11-21T00:47:31.372Z,5.67
2017-11-21T00:47:35.509Z,5.67
2017-11-21T00:47:39.857Z,5.67
2017-11-21T00:47:44.220Z,5.67
2017-11-21T00:47:48.609Z,5.67
2017-11-21T00:47:52.848Z,5.67
2017-11-21T00:47:57.205Z,5.67
2017-11-21T00:48:01.561Z,5.67
2017-11-21T00:48:05.964Z,5.67
2017-11-21T00:48:10.086Z,5.67
2017-11-21T00:48:14.331Z,5.67
2017-11-21T00:48:18.682Z,5.68
2017-11-21T00:48:22.815Z,5.68
2017-11-21T00:48:27.180Z,5.68
2017-11-21T00:48:31.424Z,5.68
2017-11-21T00:48:35.549Z,5.68
2017-11-21T00:48:39.895Z,5.68
2017-11-21T00:48:44.137Z,5.68
2017-11-21T00:48:48.395Z,5.68
2017-11-21T00:48:52.759Z,5.69
2017-11-21T00:48:57.112Z,5.68
2017-11-21T00:49:01.358Z,5.68
2017-11-21T00:49:05.716Z,5.69
2017-11-21T00:49:09.957Z,5.68
2017-11-21T00:49:14.106Z,5.68
2017-11-21T00:49:18.449Z,5.69
2017-11-21T00:49:22.571Z,5.69
2017-11-21T00:49:26.934Z,5.69
2017-11-21T00:49:31.169Z,5.68
2017-11-21T00:49:35.311Z,5.69
2017-11-21T00:49:39.447Z,5.69
2017-11-21T00:49:43.570Z,5.69
2017-11-21T00:49:47.911Z,5.69
2017-11-21T00:49:52.045Z,5.69
2017-11-21T00:49:56.188Z,5.69
2017-11-21T00:50:00.430Z,5.69
2017-11-21T00:50:04.861Z,5.7
2017-11-21T00:50:09.119Z,5.7
2017-11-21T00:50:13.031Z,5.7
2017-11-21T00:50:17.279Z,5.69
2017-11-21T00:50:21.640Z,5.7
2017-11-21T00:50:25.905Z,5.69
2017-11-21T00:50:30.152Z,5.7
2017-11-21T00:50:34.281Z,5.69
2017-11-21T00:50:38.648Z,5.69
2017-11-21T00:50:42.901Z,5.7
2017-11-21T00:50:47.160Z,5.7
2017-11-21T00:50:51.517Z,5.7
2017-11-21T00:50:55.645Z,5.7
2017-11-21T00:50:59.890Z,5.7
2017-11-21T00:51:04.137Z,5.7
2017-11-21T00:51:08.310Z,5.71
2017-11-21T00:51:12.657Z,5.7
2017-11-21T00:51:17.027Z,5.7
2017-11-21T00:51:21.301Z,5.71
2017-11-21T00:51:25.440Z,5.7
2017-11-21T00:51:29.692Z,5.71
2017-11-21T00:51:34.073Z,5.71
2017-11-21T00:51:38.210Z,5.71
2017-11-21T00:51:42.469Z,5.71
2017-11-21T00:51:46.733Z,5.71
2017-11-21T00:51:50.872Z,5.72
2017-11-21T00:51:55.231Z,5.71
2017-11-21T00:51:59.469Z,5.72
2017-11-21T00:52:03.727Z,5.72
2017-11-21T00:52:07.873Z,5.71
2017-11-21T00:52:12.012Z,5.72
2017-11-21T00:52:16.368Z,5.72
2017-11-21T00:52:20.717Z,5.72
2017-11-21T00:52:24.850Z,5.72
2017-11-21T00:52:29.104Z,5.73
2017-11-21T00:52:33.464Z,5.72
2017-11-21T00:52:37.700Z,5.72
2017-11-21T00:52:41.948Z,5.73
2017-11-21T00:52:46.084Z,5.73
2017-11-21T00:52:50.327Z,5.73
2017-11-21T00:52:54.568Z,5.73
2017-11-21T00:52:58.933Z,5.73
2017-11-21T00:53:03.382Z,5.74
2017-11-21T00:53:07.727Z,5.74
2017-11-21T00:53:12.091Z,5.73
2017-11-21T00:53:16.344Z,5.74
2017-11-21T00:53:20.692Z,5.74
2017-11-21T00:53:25.049Z,5.73
2017-11-21T00:53:29.173Z,5.74
2017-11-21T00:53:33.309Z,5.74
2017-11-21T00:53:37.436Z,5.74
2017-11-21T00:53:41.670Z,5.73
2017-11-21T00:53:46.035Z,5.74
2017-11-21T00:53:50.396Z,5.74
2017-11-21T00:53:54.640Z,5.74
2017-11-21T00:53:58.668Z,5.74
2017-11-21T00:54:03.320Z,5.74
2017-11-21T00:54:07.670Z,5.75
2017-11-21T00:54:11.815Z,5.75
2017-11-21T00:54:16.161Z,5.74
2017-11-21T00:54:20.397Z,5.74
2017-11-21T00:54:24.758Z,5.74
2017-11-21T00:54:29.008Z,5.75
2017-11-21T00:54:33.132Z,5.74
2017-11-21T00:54:37.249Z,5.75
2017-11-21T00:54:41.485Z,5.75
2017-11-21T00:54:45.838Z,5.75
2017-11-21T00:54:49.856Z,5.75
2017-11-21T00:54:54.216Z,5.74
2017-11-21T00:54:58.341Z,5.74
2017-11-21T00:55:02.817Z,5.74
2017-11-21T00:55:06.959Z,5.76
2017-11-21T00:55:11.316Z,5.76
2017-11-21T00:55:15.662Z,5.75
2017-11-21T00:55:20.007Z,5.75
2017-11-21T00:55:24.366Z,5.75
2017-11-21T00:55:28.610Z,5.75
2017-11-21T00:55:32.844Z,5.75
2017-11-21T00:55:36.863Z,5.76
2017-11-21T00:55:40.988Z,5.75
2017-11-21T00:55:45.334Z,5.76
2017-11-21T00:55:49.680Z,5.75
2017-11-21T00:55:54.033Z,5.75
2017-11-21T00:55:58.269Z,5.75
2017-11-21T00:56:02.502Z,5.75
2017-11-21T00:56:06.406Z,5.75
2017-11-21T00:56:10.648Z,5.76
2017-11-21T00:56:14.875Z,5.76
2017-11-21T00:56:19.223Z,5.75
2017-11-21T00:56:23.588Z,5.76
2017-11-21T00:56:27.718Z,5.76
2017-11-21T00:56:31.942Z,5.76
2017-11-21T00:56:36.081Z,5.76
2017-11-21T00:56:40.426Z,5.76
2017-11-21T00:56:44.769Z,5.75